createdAt,value
2018-11-26T00:02:27.956Z,91.72
2018-11-26T00:04:58.579Z,91.88
2018-11-26T00:07:29.272Z,91.84
2018-11-26T00:10:16.506Z,91.68
2018-11-26T00:12:47.208Z,92.12
2018-11-26T00:15:17.872Z,92.16
2018-11-26T00:17:48.546Z,91.52
2018-11-26T00:20:19.240Z,91.68
2018-11-26T00:22:49.972Z,91.77
2018-11-26T00:25:20.603Z,91.78
2018-11-26T00:27:51.249Z,91.79
2018-11-26T00:30:21.876Z,92.05
2018-11-26T00:32:52.582Z,92.04
2018-11-26T00:35:23.204Z,92.11
2018-11-26T00:37:53.875Z,92.21
2018-11-26T00:40:24.537Z,91.89
2018-11-26T00:42:55.176Z,92.32
2018-11-26T00:45:25.905Z,91.74
2018-11-26T00:47:56.565Z,91.69
2018-11-26T00:50:27.253Z,91.99
2018-11-26T00:52:57.854Z,92.23
2018-11-26T00:55:28.578Z,91.84
2018-11-26T00:57:59.248Z,91.69
2018-11-26T01:00:29.920Z,91.81
2018-11-26T01:03:00.590Z,91.63
2018-11-26T01:05:38.509Z,91.53
2018-11-26T01:08:09.369Z,91.06
2018-11-26T01:10:40.035Z,91.36
2018-11-26T01:13:10.706Z,92.29
2018-11-26T01:15:41.388Z,91.90
2018-11-26T01:18:12.062Z,91.33
2018-11-26T01:20:42.719Z,91.34
2018-11-26T01:23:13.383Z,91.63
2018-11-26T01:25:44.032Z,91.58
2018-11-26T01:28:22.379Z,91.44
2018-11-26T01:30:53.051Z,91.12
2018-11-26T01:33:23.808Z,91.18
2018-11-26T01:35:54.497Z,90.96
2018-11-26T01:38:25.191Z,90.99
2018-11-26T01:40:55.878Z,90.93
2018-11-26T01:43:26.508Z,91.54
2018-11-26T01:45:57.174Z,91.58
2018-11-26T01:48:27.792Z,90.97
2018-11-26T01:50:58.453Z,90.52
2018-11-26T01:53:29.145Z,90.69
2018-11-26T01:55:59.763Z,89.76
2018-11-26T01:58:30.368Z,90.41
2018-11-26T02:01:01.016Z,89.97
2018-11-26T02:03:31.638Z,90.17
2018-11-26T02:06:02.274Z,90.17
2018-11-26T02:08:32.954Z,89.75
2018-11-26T02:11:03.611Z,90.12
2018-11-26T02:13:34.272Z,90.49
2018-11-26T02:16:04.912Z,90.62
2018-11-26T02:18:35.601Z,90.50
2018-11-26T02:21:06.279Z,90.60
2018-11-26T02:23:37.021Z,90.87
2018-11-26T02:26:07.687Z,90.58
2018-11-26T02:28:38.365Z,90.45
2018-11-26T02:31:09.056Z,90.49
2018-11-26T02:33:39.739Z,90.53
2018-11-26T02:36:10.370Z,90.36
2018-11-26T02:38:41.033Z,90.22
2018-11-26T02:41:11.666Z,90.71
2018-11-26T02:43:42.306Z,90.25
2018-11-26T02:46:12.987Z,90.05
2018-11-26T02:48:43.609Z,90.54
2018-11-26T02:51:14.273Z,90.43
2018-11-26T02:53:44.961Z,90.62
2018-11-26T02:56:15.599Z,90.36
2018-11-26T02:58:46.236Z,90.52
2018-11-26T03:01:16.956Z,90.27
2018-11-26T03:03:47.607Z,90.15
2018-11-26T03:06:18.219Z,90.59
2018-11-26T03:08:48.908Z,90.65
2018-11-26T03:11:19.544Z,90.66
2018-11-26T03:13:50.216Z,90.67
2018-11-26T03:16:20.891Z,90.79
2018-11-26T03:18:51.630Z,90.22
2018-11-26T03:21:22.282Z,90.22
2018-11-26T03:23:52.888Z,90.35
2018-11-26T03:26:23.479Z,90.58
2018-11-26T03:28:54.165Z,90.42
2018-11-26T03:31:24.783Z,90.94
2018-11-26T03:33:55.401Z,91.14
2018-11-26T03:36:26.028Z,90.42
2018-11-26T03:38:56.761Z,90.75
2018-11-26T03:41:27.814Z,90.46
2018-11-26T03:43:58.494Z,90.96
2018-11-26T03:46:29.132Z,90.24
2018-11-26T03:48:59.834Z,89.88
2018-11-26T03:51:30.487Z,90.30
2018-11-26T03:54:01.126Z,90.14
2018-11-26T03:56:31.825Z,90.18
2018-11-26T03:59:02.534Z,90.16
2018-11-26T04:01:33.199Z,90.07
2018-11-26T04:04:04.020Z,90.66
2018-11-26T04:06:34.696Z,90.14
2018-11-26T04:09:07.604Z,90.19
2018-11-26T04:11:38.431Z,90.38
2018-11-26T04:14:09.124Z,90.92
2018-11-26T04:16:39.900Z,90.57
2018-11-26T04:19:10.512Z,90.19
2018-11-26T04:21:41.217Z,89.71
2018-11-26T04:24:11.898Z,90.18
2018-11-26T04:26:42.662Z,89.70
2018-11-26T04:29:13.328Z,89.51
2018-11-26T04:31:43.969Z,89.51
2018-11-26T04:34:14.667Z,89.13
2018-11-26T04:36:45.309Z,89.69
2018-11-26T04:39:16.071Z,89.47
2018-11-26T04:41:46.745Z,89.97
2018-11-26T04:44:17.457Z,89.39
2018-11-26T04:46:48.171Z,89.28
2018-11-26T04:49:18.860Z,89.17
2018-11-26T04:51:49.635Z,89.44
2018-11-26T04:54:20.355Z,89.45
2018-11-26T04:56:51.030Z,89.33
2018-11-26T04:59:21.697Z,89.33
2018-11-26T05:01:52.443Z,89.53
2018-11-26T05:04:23.168Z,88.82
2018-11-26T05:06:53.852Z,89.37
2018-11-26T05:09:24.551Z,89.09
2018-11-26T05:11:55.263Z,89.36
2018-11-26T05:14:57.164Z,89.10
2018-11-26T05:17:27.812Z,89.03
2018-11-26T05:19:58.527Z,89.46
2018-11-26T05:22:29.198Z,89.27
2018-11-26T05:24:59.786Z,89.29
2018-11-26T05:27:30.433Z,89.65
2018-11-26T05:30:01.094Z,89.23
2018-11-26T05:32:31.803Z,89.50
2018-11-26T05:35:02.465Z,89.95
2018-11-26T05:37:33.104Z,89.52
2018-11-26T05:40:04.360Z,89.60
2018-11-26T05:42:35.966Z,89.04
2018-11-26T05:45:09.886Z,89.34
2018-11-26T05:47:40.529Z,89.17
2018-11-26T05:50:13.642Z,88.88
2018-11-26T05:52:44.351Z,88.60
2018-11-26T05:55:16.807Z,88.86
2018-11-26T05:57:47.900Z,88.93
2018-11-26T06:00:25.369Z,88.82
2018-11-26T06:02:56.005Z,88.91
2018-11-26T06:05:26.738Z,88.95
2018-11-26T06:07:57.403Z,89.04
2018-11-26T06:10:28.044Z,88.71
2018-11-26T06:12:58.731Z,88.58
2018-11-26T06:15:29.428Z,89.12
2018-11-26T06:18:00.063Z,89.39
2018-11-26T06:20:30.765Z,89.62
2018-11-26T06:23:01.454Z,89.44
2018-11-26T06:25:32.180Z,88.34
2018-11-26T06:28:02.843Z,88.83
2018-11-26T06:30:33.538Z,89.08
2018-11-26T06:33:04.185Z,89.18
2018-11-26T06:35:34.891Z,88.58
2018-11-26T06:38:05.924Z,88.81
2018-11-26T06:40:36.739Z,88.75
2018-11-26T06:43:07.351Z,88.68
2018-11-26T06:45:38.007Z,89.09
2018-11-26T06:48:08.700Z,89.03
2018-11-26T06:50:39.333Z,88.87
2018-11-26T06:53:09.948Z,88.45
2018-11-26T06:55:40.555Z,88.69
2018-11-26T06:58:11.306Z,89.51
2018-11-26T07:00:41.938Z,89.19
2018-11-26T07:03:12.593Z,89.63
2018-11-26T07:05:43.293Z,88.95
2018-11-26T07:08:14.000Z,88.83
2018-11-26T07:10:44.705Z,89.65
2018-11-26T07:13:15.291Z,88.64
2018-11-26T07:15:46.018Z,88.68
2018-11-26T07:18:16.634Z,89.20
2018-11-26T07:20:47.284Z,89.28
2018-11-26T07:23:17.933Z,89.33
2018-11-26T07:25:48.681Z,88.93
2018-11-26T07:28:19.301Z,89.03
2018-11-26T07:30:49.958Z,89.12
2018-11-26T07:33:20.620Z,89.47
2018-11-26T07:35:51.294Z,88.89
2018-11-26T07:38:22.028Z,88.71
2018-11-26T07:40:52.788Z,88.93
2018-11-26T07:43:23.519Z,89.35
2018-11-26T07:45:54.153Z,88.54
2018-11-26T07:48:24.861Z,88.65
2018-11-26T07:50:55.537Z,88.47
2018-11-26T07:53:26.175Z,89.08
2018-11-26T07:55:56.861Z,88.56
2018-11-26T07:58:27.538Z,87.68
2018-11-26T08:00:58.214Z,87.64
2018-11-26T08:03:28.895Z,87.58
2018-11-26T08:05:59.521Z,87.38
2018-11-26T08:08:30.162Z,87.21
2018-11-26T08:11:00.851Z,86.99
2018-11-26T08:13:31.496Z,86.76
2018-11-26T08:16:02.110Z,86.94
2018-11-26T08:18:32.893Z,87.27
2018-11-26T08:21:03.545Z,86.01
2018-11-26T08:23:34.213Z,86.86
2018-11-26T08:26:04.889Z,86.24
2018-11-26T08:28:35.633Z,85.56
2018-11-26T08:31:06.849Z,85.08
2018-11-26T08:33:37.484Z,85.76
2018-11-26T08:36:14.394Z,85.55
2018-11-26T08:38:51.878Z,84.86
2018-11-26T08:41:26.631Z,85.42
2018-11-26T08:43:58.212Z,85.34
2018-11-26T08:46:31.823Z,85.30
2018-11-26T08:49:07.417Z,85.59
2018-11-26T08:51:38.073Z,84.00
2018-11-26T08:54:08.847Z,84.05
2018-11-26T08:56:39.549Z,83.78
2018-11-26T08:59:10.210Z,83.82
2018-11-26T09:01:42.897Z,83.60
2018-11-26T09:04:18.746Z,83.54
2018-11-26T09:06:49.972Z,83.58
2018-11-26T09:09:20.696Z,82.28
2018-11-26T09:11:51.367Z,82.28
2018-11-26T09:14:22.051Z,82.93
2018-11-26T09:16:52.717Z,82.43
2018-11-26T09:19:23.361Z,82.20
2018-11-26T09:21:54.139Z,82.82
2018-11-26T09:24:24.856Z,82.45
2018-11-26T09:26:55.600Z,82.10
2018-11-26T09:29:26.314Z,82.79
2018-11-26T09:31:56.961Z,82.86
2018-11-26T09:34:27.660Z,82.33
2018-11-26T09:36:58.443Z,82.82
2018-11-26T09:39:29.084Z,82.14
2018-11-26T09:41:59.859Z,82.24
2018-11-26T09:44:30.566Z,82.23
2018-11-26T09:47:01.234Z,81.82
2018-11-26T09:49:31.884Z,81.77
2018-11-26T09:52:02.594Z,81.77
2018-11-26T09:54:33.249Z,81.67
2018-11-26T09:57:03.949Z,81.26
2018-11-26T09:59:34.578Z,81.68
2018-11-26T10:02:05.348Z,82.26
2018-11-26T10:04:36.049Z,82.05
2018-11-26T10:07:07.116Z,81.77
2018-11-26T10:09:37.840Z,82.49
2018-11-26T10:12:08.520Z,81.32
2018-11-26T10:14:39.233Z,82.04
2018-11-26T10:17:09.909Z,82.23
2018-11-26T10:19:40.532Z,81.96
2018-11-26T10:22:11.208Z,82.34
2018-11-26T10:24:41.871Z,81.76
2018-11-26T10:27:12.585Z,80.87
2018-11-26T10:29:43.286Z,81.10
2018-11-26T10:32:20.408Z,81.21
2018-11-26T10:34:51.078Z,80.62
2018-11-26T10:37:21.742Z,80.83
2018-11-26T10:39:52.367Z,80.98
2018-11-26T10:42:23.045Z,81.01
2018-11-26T10:44:53.739Z,80.14
2018-11-26T10:47:24.384Z,80.92
2018-11-26T10:49:55.064Z,81.19
2018-11-26T10:52:25.755Z,80.75
2018-11-26T10:54:56.455Z,80.92
2018-11-26T10:57:27.133Z,80.25
2018-11-26T10:59:57.752Z,80.15
2018-11-26T11:02:33.729Z,80.20
2018-11-26T11:05:04.485Z,80.98
2018-11-26T11:07:35.185Z,79.59
2018-11-26T11:10:24.020Z,79.04
2018-11-26T11:12:54.736Z,79.69
2018-11-26T11:15:25.502Z,79.93
2018-11-26T11:17:56.195Z,79.22
2018-11-26T11:20:29.444Z,79.63
2018-11-26T11:23:00.120Z,78.64
2018-11-26T11:25:30.862Z,79.02
2018-11-26T11:28:01.586Z,79.24
2018-11-26T11:30:32.226Z,78.59
2018-11-26T11:35:32.618Z,77.09
2018-11-26T11:38:03.282Z,77.46
2018-11-26T11:40:33.994Z,77.55
2018-11-26T11:43:04.715Z,77.95
2018-11-26T11:45:35.575Z,77.14
2018-11-26T11:48:07.316Z,77.56
2018-11-26T11:50:38.053Z,77.23
2018-11-26T11:53:08.715Z,77.14
2018-11-26T11:55:39.455Z,75.96
2018-11-26T11:58:10.134Z,75.56
2018-11-26T12:00:41.887Z,75.61
2018-11-26T12:03:14.803Z,75.62
2018-11-26T12:05:45.746Z,75.30
2018-11-26T12:08:16.744Z,75.56
2018-11-26T12:10:47.498Z,74.43
2018-11-26T12:13:18.187Z,74.92
2018-11-26T12:15:52.772Z,75.52
2018-11-26T12:18:23.468Z,76.19
2018-11-26T12:20:54.162Z,76.46
2018-11-26T12:23:24.877Z,75.65
2018-11-26T12:25:55.599Z,75.84
2018-11-26T12:28:26.367Z,76.01
2018-11-26T12:30:57.087Z,75.82
2018-11-26T12:33:27.771Z,75.80
2018-11-26T12:35:58.451Z,76.48
2018-11-26T12:38:29.157Z,75.57
2018-11-26T12:40:59.861Z,75.85
2018-11-26T12:43:30.566Z,76.17
2018-11-26T12:46:01.425Z,76.36
2018-11-26T12:48:32.095Z,76.82
2018-11-26T12:51:03.008Z,76.36
2018-11-26T12:53:33.761Z,76.58
2018-11-26T12:56:04.591Z,76.79
2018-11-26T12:58:35.338Z,76.72
2018-11-26T13:01:06.087Z,77.14
2018-11-26T13:03:36.902Z,76.48
2018-11-26T13:06:08.250Z,76.31
2018-11-26T13:08:39.229Z,76.48
2018-11-26T13:11:10.037Z,76.26
2018-11-26T13:13:40.701Z,76.76
2018-11-26T13:16:11.519Z,77.07
2018-11-26T13:18:42.271Z,76.55
2018-11-26T13:21:13.097Z,75.64
2018-11-26T13:23:43.897Z,75.41
2018-11-26T13:26:14.730Z,75.05
2018-11-26T13:28:45.489Z,75.39
2018-11-26T13:31:16.244Z,75.79
2018-11-26T13:33:46.967Z,74.69
2018-11-26T13:36:17.636Z,75.61
2018-11-26T13:38:48.272Z,75.22
2018-11-26T13:41:19.038Z,75.35
2018-11-26T13:43:49.791Z,75.12
2018-11-26T13:46:20.522Z,75.14
2018-11-26T13:48:51.152Z,75.00
2018-11-26T13:51:21.790Z,75.86
2018-11-26T13:53:52.506Z,75.19
2018-11-26T13:56:23.265Z,74.67
2018-11-26T13:58:53.982Z,74.98
2018-11-26T14:01:24.716Z,74.51
2018-11-26T14:03:55.350Z,74.86
2018-11-26T14:06:26.024Z,75.01
2018-11-26T14:08:56.821Z,74.75
2018-11-26T14:11:27.510Z,74.54
2018-11-26T14:13:58.148Z,74.83
2018-11-26T14:16:28.923Z,75.05
2018-11-26T14:18:59.581Z,74.82
2018-11-26T14:21:30.234Z,75.65
2018-11-26T14:24:01.014Z,75.67
2018-11-26T14:26:31.643Z,76.27
2018-11-26T14:29:02.362Z,76.71
2018-11-26T14:31:33.018Z,76.90
2018-11-26T14:34:03.738Z,76.54
2018-11-26T14:36:34.445Z,76.74
2018-11-26T14:39:07.245Z,76.79
2018-11-26T14:41:38.040Z,77.46
2018-11-26T14:44:08.794Z,77.38
2018-11-26T14:46:39.508Z,78.25
2018-11-26T14:49:10.307Z,78.01
2018-11-26T14:51:40.977Z,78.38
2018-11-26T14:54:11.903Z,78.45
2018-11-26T14:56:42.595Z,78.28
2018-11-26T14:59:13.308Z,78.17
2018-11-26T15:01:44.017Z,78.24
2018-11-26T15:04:14.731Z,76.92
2018-11-26T15:06:45.420Z,77.55
2018-11-26T15:09:16.088Z,78.09
2018-11-26T15:11:46.730Z,77.74
2018-11-26T15:14:17.448Z,78.01
2018-11-26T15:16:48.159Z,77.88
2018-11-26T15:19:18.824Z,77.75
2018-11-26T15:21:49.475Z,78.22
2018-11-26T15:24:20.178Z,78.02
2018-11-26T15:26:53.287Z,77.80
2018-11-26T15:29:21.553Z,77.85
2018-11-26T15:31:52.226Z,78.19
2018-11-26T15:34:22.937Z,77.91
2018-11-26T15:36:53.599Z,78.14
2018-11-26T15:39:24.262Z,78.48
2018-11-26T15:41:54.918Z,78.22
2018-11-26T15:44:25.655Z,77.81
2018-11-26T15:46:56.315Z,78.33
2018-11-26T15:49:26.971Z,78.63
2018-11-26T15:51:57.637Z,78.77
2018-11-26T15:54:28.330Z,78.61
2018-11-26T15:56:58.971Z,76.91
2018-11-26T15:59:29.637Z,77.47
2018-11-26T16:02:00.367Z,77.30
2018-11-26T16:04:31.072Z,76.99
2018-11-26T16:07:01.751Z,77.37
2018-11-26T16:09:32.424Z,77.35
2018-11-26T16:12:03.194Z,77.90
2018-11-26T16:14:33.922Z,77.87
2018-11-26T16:17:04.686Z,78.38
2018-11-26T16:19:35.372Z,78.42
2018-11-26T16:22:07.072Z,78.55
2018-11-26T16:24:37.727Z,78.14
2018-11-26T16:27:08.422Z,78.50
2018-11-26T16:29:39.038Z,78.38
2018-11-26T16:32:09.725Z,78.20
2018-11-26T16:34:40.388Z,78.54
2018-11-26T16:37:11.102Z,78.15
2018-11-26T16:39:41.859Z,78.74
2018-11-26T16:42:12.513Z,78.31
2018-11-26T16:44:43.120Z,78.26
2018-11-26T16:47:13.842Z,78.26
2018-11-26T16:49:44.490Z,77.86
2018-11-26T16:52:15.155Z,77.60
2018-11-26T16:54:45.855Z,78.49
2018-11-26T16:57:16.610Z,77.51
2018-11-26T16:59:47.218Z,77.96
2018-11-26T17:02:17.951Z,77.64
2018-11-26T17:04:48.594Z,77.73
2018-11-26T17:07:19.267Z,77.73
2018-11-26T17:09:49.968Z,77.90
2018-11-26T17:12:20.614Z,77.81
2018-11-26T17:14:51.348Z,78.21
2018-11-26T17:17:22.051Z,78.39
2018-11-26T17:19:52.770Z,78.48
2018-11-26T17:22:23.443Z,77.79
2018-11-26T17:24:54.186Z,77.69
2018-11-26T17:27:24.866Z,77.88
2018-11-26T17:29:55.571Z,78.55
2018-11-26T17:32:26.268Z,78.35
2018-11-26T17:34:56.952Z,78.95
2018-11-26T17:37:27.677Z,78.53
2018-11-26T17:39:58.436Z,78.70
2018-11-26T17:42:29.146Z,79.73
2018-11-26T17:44:59.879Z,79.03
2018-11-26T17:47:30.590Z,78.98
2018-11-26T17:50:01.307Z,78.47
2018-11-26T17:52:32.019Z,78.96
2018-11-26T17:55:02.768Z,79.09
2018-11-26T17:57:33.443Z,78.80
2018-11-26T18:00:04.540Z,79.08
2018-11-26T18:02:35.328Z,79.13
2018-11-26T18:05:09.523Z,79.14
2018-11-26T18:07:40.242Z,78.66
2018-11-26T18:10:15.050Z,79.31
2018-11-26T18:12:45.751Z,79.41
2018-11-26T18:15:16.786Z,79.32
2018-11-26T18:17:47.848Z,79.18
2018-11-26T18:20:21.232Z,78.25
2018-11-26T18:22:53.799Z,79.18
2018-11-26T18:25:25.608Z,78.65
2018-11-26T18:28:00.154Z,78.39
2018-11-26T18:30:39.210Z,77.88
2018-11-26T18:33:09.594Z,78.61
2018-11-26T18:35:41.228Z,78.77
2018-11-26T18:38:11.935Z,78.91
2018-11-26T18:40:44.693Z,78.58
2018-11-26T18:43:15.371Z,78.35
2018-11-26T18:45:46.148Z,78.43
2018-11-26T18:48:17.157Z,78.08
2018-11-26T18:50:47.894Z,77.92
2018-11-26T18:53:18.588Z,78.34
2018-11-26T18:55:49.313Z,78.24
2018-11-26T18:58:20.003Z,78.88
2018-11-26T19:00:54.615Z,77.73
2018-11-26T19:03:25.370Z,76.90
2018-11-26T19:05:56.497Z,77.25
2018-11-26T19:08:27.256Z,77.17
2018-11-26T19:11:03.302Z,77.35
2018-11-26T19:14:39.522Z,77.29
2018-11-26T19:17:10.303Z,77.02
2018-11-26T19:19:42.228Z,77.53
2018-11-26T19:22:11.751Z,77.11
2018-11-26T19:24:42.439Z,77.32
2018-11-26T19:27:13.195Z,77.38
2018-11-26T19:29:43.987Z,78.12
2018-11-26T19:32:14.738Z,77.93
2018-11-26T19:34:45.569Z,77.32
2018-11-26T19:37:16.331Z,78.37
2018-11-26T19:39:47.146Z,76.51
2018-11-26T19:42:17.855Z,75.66
2018-11-26T19:44:48.599Z,75.46
2018-11-26T19:47:19.303Z,76.34
2018-11-26T19:49:50.051Z,76.64
2018-11-26T19:52:20.819Z,76.01
2018-11-26T19:54:51.607Z,76.34
2018-11-26T19:57:22.378Z,76.86
2018-11-26T19:59:53.314Z,75.62
2018-11-26T20:02:24.614Z,76.16
2018-11-26T20:04:59.886Z,76.58
2018-11-26T20:07:31.061Z,76.41
2018-11-26T20:10:02.505Z,76.29
2018-11-26T20:12:33.516Z,75.14
2018-11-26T20:15:07.937Z,75.85
2018-11-26T20:17:38.785Z,74.69
2018-11-26T20:20:10.776Z,75.62
2018-11-26T20:22:41.791Z,75.46
2018-11-26T20:25:16.374Z,76.11
2018-11-26T20:27:47.631Z,75.61
2018-11-26T20:30:19.070Z,76.01
2018-11-26T20:32:50.700Z,75.57
2018-11-26T20:35:21.978Z,75.54
2018-11-26T20:37:53.016Z,76.25
2018-11-26T20:40:23.710Z,76.17
2018-11-26T20:42:56.394Z,76.18
2018-11-26T20:45:27.070Z,76.41
2018-11-26T20:47:57.786Z,76.26
2018-11-26T20:50:30.311Z,76.59
2018-11-26T20:53:01.028Z,76.90
2018-11-26T20:55:31.923Z,76.83
2018-11-26T20:58:02.784Z,77.72
2018-11-26T21:00:33.517Z,76.99
2018-11-26T21:03:08.162Z,77.38
2018-11-26T21:05:40.063Z,77.27
2018-11-26T21:08:11.133Z,77.64
2018-11-26T21:10:42.176Z,79.41
2018-11-26T21:13:16.892Z,77.88
2018-11-26T21:15:44.338Z,77.69
2018-11-26T21:18:15.462Z,77.47
2018-11-26T21:20:49.725Z,77.46
2018-11-26T21:23:27.092Z,77.67
2018-11-26T21:26:00.203Z,77.99
2018-11-26T21:28:31.206Z,78.23
2018-11-26T21:31:02.236Z,77.42
2018-11-26T21:33:33.310Z,77.95
2018-11-26T21:36:04.475Z,77.80
2018-11-26T21:38:38.055Z,77.66
2018-11-26T21:41:09.242Z,78.32
2018-11-26T21:43:40.327Z,78.44
2018-11-26T21:46:12.118Z,78.81
2018-11-26T21:48:42.362Z,78.90
2018-11-26T21:51:13.389Z,79.20
2018-11-26T21:53:44.377Z,78.47
2018-11-26T21:56:15.292Z,78.73
2018-11-26T21:58:46.284Z,79.00
2018-11-26T22:01:17.272Z,79.07
2018-11-26T22:03:48.232Z,78.86
2018-11-26T22:06:19.329Z,78.65
2018-11-26T22:08:50.275Z,78.14
2018-11-26T22:11:21.291Z,78.58
2018-11-26T22:13:52.270Z,79.08
2018-11-26T22:16:23.281Z,78.96
2018-11-26T22:18:54.208Z,79.47
2018-11-26T22:21:25.227Z,79.03
2018-11-26T22:23:56.175Z,79.45
2018-11-26T22:26:27.211Z,79.17
2018-11-26T22:28:58.110Z,79.25
2018-11-26T22:31:29.119Z,80.01
2018-11-26T22:34:00.036Z,79.61
2018-11-26T22:36:31.000Z,79.79
2018-11-26T22:39:01.962Z,80.16
2018-11-26T22:41:32.607Z,80.09
2018-11-26T22:44:03.312Z,79.42
2018-11-26T22:46:34.122Z,79.84
2018-11-26T22:49:04.936Z,80.29
2018-11-26T22:51:35.699Z,79.66
2018-11-26T22:54:06.608Z,79.34
2018-11-26T22:56:37.427Z,79.11
2018-11-26T22:59:08.231Z,79.39
2018-11-26T23:01:38.956Z,79.35
2018-11-26T23:04:09.691Z,79.75
2018-11-26T23:06:40.434Z,79.96
2018-11-26T23:09:11.121Z,79.42
2018-11-26T23:11:41.815Z,79.59
2018-11-26T23:14:12.525Z,80.18
2018-11-26T23:16:43.133Z,79.87
2018-11-26T23:19:13.834Z,79.61
2018-11-26T23:21:44.584Z,79.92
2018-11-26T23:24:15.313Z,79.75
2018-11-26T23:26:46.016Z,79.94
2018-11-26T23:29:16.731Z,80.56
2018-11-26T23:31:47.450Z,80.61
2018-11-26T23:34:18.179Z,80.60
2018-11-26T23:36:48.905Z,80.81
2018-11-26T23:39:19.623Z,80.50
2018-11-26T23:41:50.293Z,80.12
2018-11-26T23:44:20.944Z,80.21
2018-11-26T23:46:51.706Z,80.19
2018-11-26T23:49:22.408Z,80.26
2018-11-26T23:51:53.127Z,80.30
2018-11-26T23:54:23.909Z,80.04
2018-11-26T23:56:54.638Z,79.79
2018-11-26T23:59:25.344Z,80.47
